sensor_id;sensor_type;location;lat;lon;timestamp;temperature;humidity
24744;DHT22;12844;52.110;5.548;2024-02-28T00:01:51;17.80;56.20
24744;DHT22;12844;52.110;5.548;2024-02-28T00:04:17;17.80;56.30
24744;DHT22;12844;52.110;5.548;2024-02-28T00:06:43;17.80;56.30
24744;DHT22;12844;52.110;5.548;2024-02-28T00:09:13;17.70;56.30
24744;DHT22;12844;52.110;5.548;2024-02-28T00:11:46;17.70;56.30
24744;DHT22;12844;52.110;5.548;2024-02-28T00:14:15;17.70;56.40
24744;DHT22;12844;52.110;5.548;2024-02-28T00:16:45;17.60;56.30
24744;DHT22;12844;52.110;5.548;2024-02-28T00:19:12;17.60;56.30
24744;DHT22;12844;52.110;5.548;2024-02-28T00:21:38;17.60;56.30
24744;DHT22;12844;52.110;5.548;2024-02-28T00:24:05;17.60;56.40
24744;DHT22;12844;52.110;5.548;2024-02-28T00:26:31;17.60;56.40
24744;DHT22;12844;52.110;5.548;2024-02-28T00:28:57;17.50;56.40
24744;DHT22;12844;52.110;5.548;2024-02-28T00:31:23;17.50;56.40
24744;DHT22;12844;52.110;5.548;2024-02-28T00:33:48;17.50;56.40
24744;DHT22;12844;52.110;5.548;2024-02-28T00:36:14;17.50;56.40
24744;DHT22;12844;52.110;5.548;2024-02-28T00:38:43;17.50;56.40
24744;DHT22;12844;52.110;5.548;2024-02-28T00:41:08;17.40;56.40
24744;DHT22;12844;52.110;5.548;2024-02-28T00:43:34;17.40;56.40
24744;DHT22;12844;52.110;5.548;2024-02-28T00:46:00;17.40;56.40
24744;DHT22;12844;52.110;5.548;2024-02-28T00:48:26;17.30;56.40
24744;DHT22;12844;52.110;5.548;2024-02-28T00:50:54;17.30;56.40
24744;DHT22;12844;52.110;5.548;2024-02-28T00:53:20;17.30;57.00
24744;DHT22;12844;52.110;5.548;2024-02-28T00:55:46;17.30;56.40
24744;DHT22;12844;52.110;5.548;2024-02-28T00:58:12;17.20;56.40
24744;DHT22;12844;52.110;5.548;2024-02-28T01:00:37;17.20;56.30
24744;DHT22;12844;52.110;5.548;2024-02-28T01:03:03;17.20;56.30
24744;DHT22;12844;52.110;5.548;2024-02-28T01:05:30;17.20;56.40
24744;DHT22;12844;52.110;5.548;2024-02-28T01:07:55;17.20;57.00
24744;DHT22;12844;52.110;5.548;2024-02-28T01:10:21;17.20;56.40
24744;DHT22;12844;52.110;5.548;2024-02-28T01:12:47;17.20;56.30
24744;DHT22;12844;52.110;5.548;2024-02-28T01:15:13;17.20;56.30
24744;DHT22;12844;52.110;5.548;2024-02-28T01:17:38;17.10;56.30
24744;DHT22;12844;52.110;5.548;2024-02-28T01:20:06;17.10;56.20
24744;DHT22;12844;52.110;5.548;2024-02-28T01:22:32;17.10;56.30
24744;DHT22;12844;52.110;5.548;2024-02-28T01:24:58;17.10;56.20
24744;DHT22;12844;52.110;5.548;2024-02-28T01:27:24;17.10;56.20
24744;DHT22;12844;52.110;5.548;2024-02-28T01:29:50;17.10;56.20
24744;DHT22;12844;52.110;5.548;2024-02-28T01:32:15;17.10;56.20
24744;DHT22;12844;52.110;5.548;2024-02-28T01:34:41;17.10;56.20
24744;DHT22;12844;52.110;5.548;2024-02-28T01:37:07;17.10;56.20
24744;DHT22;12844;52.110;5.548;2024-02-28T01:39:32;17.10;56.20
24744;DHT22;12844;52.110;5.548;2024-02-28T01:41:58;17.10;56.20
24744;DHT22;12844;52.110;5.548;2024-02-28T01:44:24;17.10;56.20
24744;DHT22;12844;52.110;5.548;2024-02-28T01:46:49;17.10;56.80
24744;DHT22;12844;52.110;5.548;2024-02-28T01:49:16;17.10;56.20
24744;DHT22;12844;52.110;5.548;2024-02-28T01:51:42;17.10;56.20
24744;DHT22;12844;52.110;5.548;2024-02-28T01:54:10;17.00;56.20
24744;DHT22;12844;52.110;5.548;2024-02-28T01:56:36;17.10;56.20
24744;DHT22;12844;52.110;5.548;2024-02-28T01:59:04;17.00;56.10
24744;DHT22;12844;52.110;5.548;2024-02-28T02:01:29;17.00;56.10
24744;DHT22;12844;52.110;5.548;2024-02-28T02:03:55;17.00;56.10
24744;DHT22;12844;52.110;5.548;2024-02-28T02:06:21;17.00;56.00
24744;DHT22;12844;52.110;5.548;2024-02-28T02:08:48;17.00;56.00
24744;DHT22;12844;52.110;5.548;2024-02-28T02:11:17;17.00;56.10
24744;DHT22;12844;52.110;5.548;2024-02-28T02:13:50;17.00;56.10
24744;DHT22;12844;52.110;5.548;2024-02-28T02:16:16;17.00;56.10
24744;DHT22;12844;52.110;5.548;2024-02-28T02:18:42;17.00;56.10
24744;DHT22;12844;52.110;5.548;2024-02-28T02:21:09;17.00;56.10
24744;DHT22;12844;52.110;5.548;2024-02-28T02:23:36;17.00;56.00
24744;DHT22;12844;52.110;5.548;2024-02-28T02:26:06;17.00;56.00
24744;DHT22;12844;52.110;5.548;2024-02-28T02:28:32;17.00;56.00
24744;DHT22;12844;52.110;5.548;2024-02-28T02:30:58;17.00;56.00
24744;DHT22;12844;52.110;5.548;2024-02-28T02:33:24;17.00;56.00
24744;DHT22;12844;52.110;5.548;2024-02-28T02:35:49;17.00;56.00
24744;DHT22;12844;52.110;5.548;2024-02-28T02:38:15;16.90;56.00
24744;DHT22;12844;52.110;5.548;2024-02-28T02:40:41;16.90;56.00
24744;DHT22;12844;52.110;5.548;2024-02-28T02:43:06;16.90;55.90
24744;DHT22;12844;52.110;5.548;2024-02-28T02:45:32;16.90;55.90
24744;DHT22;12844;52.110;5.548;2024-02-28T02:47:58;16.90;55.90
24744;DHT22;12844;52.110;5.548;2024-02-28T02:50:24;16.90;55.90
24744;DHT22;12844;52.110;5.548;2024-02-28T02:52:49;16.90;55.90
24744;DHT22;12844;52.110;5.548;2024-02-28T02:55:15;16.90;55.90
24744;DHT22;12844;52.110;5.548;2024-02-28T02:57:40;16.90;55.90
24744;DHT22;12844;52.110;5.548;2024-02-28T03:00:10;16.90;55.90
24744;DHT22;12844;52.110;5.548;2024-02-28T03:02:35;16.90;55.90
24744;DHT22;12844;52.110;5.548;2024-02-28T03:05:04;16.90;55.90
24744;DHT22;12844;52.110;5.548;2024-02-28T03:07:30;16.90;55.90
24744;DHT22;12844;52.110;5.548;2024-02-28T03:09:55;16.90;55.90
24744;DHT22;12844;52.110;5.548;2024-02-28T03:12:21;16.80;55.80
24744;DHT22;12844;52.110;5.548;2024-02-28T03:14:48;16.80;55.90
24744;DHT22;12844;52.110;5.548;2024-02-28T03:17:14;16.80;55.80
24744;DHT22;12844;52.110;5.548;2024-02-28T03:19:41;16.80;55.90
24744;DHT22;12844;52.110;5.548;2024-02-28T03:22:06;16.80;55.90
24744;DHT22;12844;52.110;5.548;2024-02-28T03:24:32;16.80;55.80
24744;DHT22;12844;52.110;5.548;2024-02-28T03:27:04;16.80;55.80
24744;DHT22;12844;52.110;5.548;2024-02-28T03:29:30;16.80;55.80
24744;DHT22;12844;52.110;5.548;2024-02-28T03:31:56;16.80;55.80
24744;DHT22;12844;52.110;5.548;2024-02-28T03:34:22;16.80;55.80
24744;DHT22;12844;52.110;5.548;2024-02-28T03:36:48;16.80;55.80
24744;DHT22;12844;52.110;5.548;2024-02-28T03:39:13;16.70;55.80
24744;DHT22;12844;52.110;5.548;2024-02-28T03:41:39;16.70;55.80
24744;DHT22;12844;52.110;5.548;2024-02-28T03:44:05;16.70;55.90
24744;DHT22;12844;52.110;5.548;2024-02-28T03:46:31;16.70;55.90
24744;DHT22;12844;52.110;5.548;2024-02-28T03:48:56;16.70;55.90
24744;DHT22;12844;52.110;5.548;2024-02-28T03:51:22;16.70;55.90
24744;DHT22;12844;52.110;5.548;2024-02-28T03:53:48;16.70;56.00
24744;DHT22;12844;52.110;5.548;2024-02-28T03:56:21;16.70;55.90
24744;DHT22;12844;52.110;5.548;2024-02-28T03:58:46;16.70;55.90
24744;DHT22;12844;52.110;5.548;2024-02-28T04:01:12;16.60;55.90
24744;DHT22;12844;52.110;5.548;2024-02-28T04:03:38;16.60;55.90
24744;DHT22;12844;52.110;5.548;2024-02-28T04:06:04;16.60;56.60
24744;DHT22;12844;52.110;5.548;2024-02-28T04:08:30;16.60;55.90
24744;DHT22;12844;52.110;5.548;2024-02-28T04:10:55;16.60;55.90
24744;DHT22;12844;52.110;5.548;2024-02-28T04:13:21;16.60;55.90
24744;DHT22;12844;52.110;5.548;2024-02-28T04:15:46;16.60;55.90
24744;DHT22;12844;52.110;5.548;2024-02-28T04:18:12;16.60;55.90
24744;DHT22;12844;52.110;5.548;2024-02-28T04:20:38;16.60;55.90
24744;DHT22;12844;52.110;5.548;2024-02-28T04:23:04;16.60;55.90
24744;DHT22;12844;52.110;5.548;2024-02-28T04:25:29;16.60;55.90
24744;DHT22;12844;52.110;5.548;2024-02-28T04:27:55;16.60;55.90
24744;DHT22;12844;52.110;5.548;2024-02-28T04:30:22;16.60;55.90
24744;DHT22;12844;52.110;5.548;2024-02-28T04:32:48;16.60;55.90
24744;DHT22;12844;52.110;5.548;2024-02-28T04:35:13;16.60;55.90
24744;DHT22;12844;52.110;5.548;2024-02-28T04:37:46;16.60;55.90
24744;DHT22;12844;52.110;5.548;2024-02-28T04:40:12;16.60;56.50
24744;DHT22;12844;52.110;5.548;2024-02-28T04:42:39;16.50;55.90
24744;DHT22;12844;52.110;5.548;2024-02-28T04:45:05;16.50;55.90
24744;DHT22;12844;52.110;5.548;2024-02-28T04:47:30;16.50;55.80
24744;DHT22;12844;52.110;5.548;2024-02-28T04:49:57;16.50;55.80
24744;DHT22;12844;52.110;5.548;2024-02-28T04:52:23;16.50;55.90
24744;DHT22;12844;52.110;5.548;2024-02-28T04:54:50;16.60;55.90
24744;DHT22;12844;52.110;5.548;2024-02-28T04:57:16;16.50;55.90
24744;DHT22;12844;52.110;5.548;2024-02-28T04:59:43;16.50;55.90
24744;DHT22;12844;52.110;5.548;2024-02-28T05:02:09;16.50;55.90
24744;DHT22;12844;52.110;5.548;2024-02-28T05:04:34;16.50;55.90
24744;DHT22;12844;52.110;5.548;2024-02-28T05:07:00;16.50;56.50
24744;DHT22;12844;52.110;5.548;2024-02-28T05:09:26;16.50;56.50
24744;DHT22;12844;52.110;5.548;2024-02-28T05:11:51;16.50;55.90
24744;DHT22;12844;52.110;5.548;2024-02-28T05:14:17;16.50;55.80
24744;DHT22;12844;52.110;5.548;2024-02-28T05:16:42;16.50;55.90
24744;DHT22;12844;52.110;5.548;2024-02-28T05:19:08;16.50;55.90
24744;DHT22;12844;52.110;5.548;2024-02-28T05:21:41;16.50;55.80
24744;DHT22;12844;52.110;5.548;2024-02-28T05:24:07;16.50;55.80
24744;DHT22;12844;52.110;5.548;2024-02-28T05:26:34;16.50;55.80
24744;DHT22;12844;52.110;5.548;2024-02-28T05:29:00;16.50;55.90
24744;DHT22;12844;52.110;5.548;2024-02-28T05:31:26;16.50;55.80
24744;DHT22;12844;52.110;5.548;2024-02-28T05:33:53;16.50;55.80
24744;DHT22;12844;52.110;5.548;2024-02-28T05:36:22;16.50;55.80
24744;DHT22;12844;52.110;5.548;2024-02-28T05:38:49;16.40;55.90
24744;DHT22;12844;52.110;5.548;2024-02-28T05:41:16;16.40;55.80
24744;DHT22;12844;52.110;5.548;2024-02-28T05:43:43;16.40;55.90
24744;DHT22;12844;52.110;5.548;2024-02-28T05:46:08;16.40;55.90
24744;DHT22;12844;52.110;5.548;2024-02-28T05:48:34;16.40;55.90
24744;DHT22;12844;52.110;5.548;2024-02-28T05:51:03;16.40;55.90
24744;DHT22;12844;52.110;5.548;2024-02-28T05:53:29;16.40;55.90
24744;DHT22;12844;52.110;5.548;2024-02-28T05:56:10;16.40;55.90
24744;DHT22;12844;52.110;5.548;2024-02-28T05:58:42;16.40;56.60
24744;DHT22;12844;52.110;5.548;2024-02-28T06:01:09;16.40;55.90
24744;DHT22;12844;52.110;5.548;2024-02-28T06:03:38;16.40;56.40
24744;DHT22;12844;52.110;5.548;2024-02-28T06:06:04;16.40;55.90
24744;DHT22;12844;52.110;5.548;2024-02-28T06:08:32;16.40;56.00
24744;DHT22;12844;52.110;5.548;2024-02-28T06:10:57;16.40;55.90
24744;DHT22;12844;52.110;5.548;2024-02-28T06:13:23;16.30;56.00
24744;DHT22;12844;52.110;5.548;2024-02-28T06:15:49;16.30;56.00
24744;DHT22;12844;52.110;5.548;2024-02-28T06:18:14;16.30;55.90
24744;DHT22;12844;52.110;5.548;2024-02-28T06:20:40;16.30;56.00
24744;DHT22;12844;52.110;5.548;2024-02-28T06:23:05;16.30;56.00
24744;DHT22;12844;52.110;5.548;2024-02-28T06:25:31;16.30;56.00
24744;DHT22;12844;52.110;5.548;2024-02-28T06:27:59;16.30;56.60
24744;DHT22;12844;52.110;5.548;2024-02-28T06:30:25;16.30;55.90
24744;DHT22;12844;52.110;5.548;2024-02-28T06:32:51;16.30;55.90
24744;DHT22;12844;52.110;5.548;2024-02-28T06:35:17;16.30;56.60
24744;DHT22;12844;52.110;5.548;2024-02-28T06:37:43;16.30;56.00
24744;DHT22;12844;52.110;5.548;2024-02-28T06:40:15;16.30;56.00
24744;DHT22;12844;52.110;5.548;2024-02-28T06:42:41;16.30;56.10
24744;DHT22;12844;52.110;5.548;2024-02-28T06:45:07;16.30;56.10
24744;DHT22;12844;52.110;5.548;2024-02-28T06:47:34;16.30;56.10
24744;DHT22;12844;52.110;5.548;2024-02-28T06:50:00;16.30;56.10
24744;DHT22;12844;52.110;5.548;2024-02-28T06:52:25;16.20;56.00
24744;DHT22;12844;52.110;5.548;2024-02-28T06:54:51;16.30;56.00
24744;DHT22;12844;52.110;5.548;2024-02-28T06:57:17;16.30;56.10
24744;DHT22;12844;52.110;5.548;2024-02-28T06:59:42;16.30;56.00
24744;DHT22;12844;52.110;5.548;2024-02-28T07:02:08;16.20;55.90
24744;DHT22;12844;52.110;5.548;2024-02-28T07:04:33;16.30;56.10
24744;DHT22;12844;52.110;5.548;2024-02-28T07:06:59;16.30;56.00
24744;DHT22;12844;52.110;5.548;2024-02-28T07:09:24;16.30;56.00
24744;DHT22;12844;52.110;5.548;2024-02-28T07:11:56;16.30;55.80
24744;DHT22;12844;52.110;5.548;2024-02-28T07:14:22;16.30;56.00
24744;DHT22;12844;52.110;5.548;2024-02-28T07:16:47;16.30;56.10
24744;DHT22;12844;52.110;5.548;2024-02-28T07:19:13;16.30;56.10
24744;DHT22;12844;52.110;5.548;2024-02-28T07:21:38;16.30;56.40
24744;DHT22;12844;52.110;5.548;2024-02-28T07:24:04;16.30;56.70
24744;DHT22;12844;52.110;5.548;2024-02-28T07:26:31;16.40;56.70
24744;DHT22;12844;52.110;5.548;2024-02-28T07:28:57;16.50;57.20
24744;DHT22;12844;52.110;5.548;2024-02-28T07:31:23;16.50;56.50
24744;DHT22;12844;52.110;5.548;2024-02-28T07:33:48;16.70;56.60
24744;DHT22;12844;52.110;5.548;2024-02-28T07:36:14;16.80;56.70
24744;DHT22;12844;52.110;5.548;2024-02-28T07:38:42;16.90;56.80
24744;DHT22;12844;52.110;5.548;2024-02-28T07:41:07;17.00;56.70
24744;DHT22;12844;52.110;5.548;2024-02-28T07:43:33;17.10;56.70
24744;DHT22;12844;52.110;5.548;2024-02-28T07:46:09;17.10;56.60
24744;DHT22;12844;52.110;5.548;2024-02-28T07:48:39;17.20;56.70
24744;DHT22;12844;52.110;5.548;2024-02-28T07:51:05;17.20;56.70
24744;DHT22;12844;52.110;5.548;2024-02-28T07:53:31;17.30;56.60
24744;DHT22;12844;52.110;5.548;2024-02-28T07:55:57;17.30;57.00
24744;DHT22;12844;52.110;5.548;2024-02-28T07:58:22;17.40;56.40
24744;DHT22;12844;52.110;5.548;2024-02-28T08:00:50;17.40;56.30
24744;DHT22;12844;52.110;5.548;2024-02-28T08:03:15;17.40;56.30
24744;DHT22;12844;52.110;5.548;2024-02-28T08:05:42;17.40;56.40
24744;DHT22;12844;52.110;5.548;2024-02-28T08:08:08;17.50;56.30
24744;DHT22;12844;52.110;5.548;2024-02-28T08:10:34;17.50;56.30
24744;DHT22;12844;52.110;5.548;2024-02-28T08:13:01;17.50;56.30
24744;DHT22;12844;52.110;5.548;2024-02-28T08:15:27;17.50;56.70
24744;DHT22;12844;52.110;5.548;2024-02-28T08:17:52;17.50;56.10
24744;DHT22;12844;52.110;5.548;2024-02-28T08:20:19;17.50;56.10
24744;DHT22;12844;52.110;5.548;2024-02-28T08:22:45;17.50;56.10
24744;DHT22;12844;52.110;5.548;2024-02-28T08:25:11;17.50;56.10
24744;DHT22;12844;52.110;5.548;2024-02-28T08:27:38;17.50;56.30
24744;DHT22;12844;52.110;5.548;2024-02-28T08:30:04;17.40;56.40
24744;DHT22;12844;52.110;5.548;2024-02-28T08:32:31;17.40;56.70
24744;DHT22;12844;52.110;5.548;2024-02-28T08:34:57;17.40;56.90
24744;DHT22;12844;52.110;5.548;2024-02-28T08:37:23;17.50;56.90
24744;DHT22;12844;52.110;5.548;2024-02-28T08:39:49;17.60;57.00
24744;DHT22;12844;52.110;5.548;2024-02-28T08:42:15;17.70;56.90
24744;DHT22;12844;52.110;5.548;2024-02-28T08:44:40;17.80;56.70
24744;DHT22;12844;52.110;5.548;2024-02-28T08:47:06;17.80;57.40
24744;DHT22;12844;52.110;5.548;2024-02-28T08:49:34;17.90;56.70
24744;DHT22;12844;52.110;5.548;2024-02-28T08:52:01;17.90;56.50
24744;DHT22;12844;52.110;5.548;2024-02-28T08:54:26;18.00;56.50
24744;DHT22;12844;52.110;5.548;2024-02-28T08:56:52;18.00;56.40
24744;DHT22;12844;52.110;5.548;2024-02-28T08:59:17;18.10;56.40
24744;DHT22;12844;52.110;5.548;2024-02-28T09:01:43;18.10;56.80
24744;DHT22;12844;52.110;5.548;2024-02-28T09:04:09;18.10;56.20
24744;DHT22;12844;52.110;5.548;2024-02-28T09:06:34;18.10;56.20
24744;DHT22;12844;52.110;5.548;2024-02-28T09:09:00;18.10;56.30
24744;DHT22;12844;52.110;5.548;2024-02-28T09:11:26;18.10;56.40
24744;DHT22;12844;52.110;5.548;2024-02-28T09:13:51;18.10;56.40
24744;DHT22;12844;52.110;5.548;2024-02-28T09:16:18;18.10;56.40
24744;DHT22;12844;52.110;5.548;2024-02-28T09:18:44;18.10;56.30
24744;DHT22;12844;52.110;5.548;2024-02-28T09:21:09;18.10;56.20
24744;DHT22;12844;52.110;5.548;2024-02-28T09:23:35;18.00;56.30
24744;DHT22;12844;52.110;5.548;2024-02-28T09:26:04;18.00;57.00
24744;DHT22;12844;52.110;5.548;2024-02-28T09:28:30;18.10;56.40
24744;DHT22;12844;52.110;5.548;2024-02-28T09:30:56;18.10;56.40
24744;DHT22;12844;52.110;5.548;2024-02-28T09:33:22;18.20;56.30
24744;DHT22;12844;52.110;5.548;2024-02-28T09:35:48;18.20;56.30
24744;DHT22;12844;52.110;5.548;2024-02-28T09:38:17;18.20;56.00
24744;DHT22;12844;52.110;5.548;2024-02-28T09:40:47;18.30;56.10
24744;DHT22;12844;52.110;5.548;2024-02-28T09:43:30;18.30;56.00
24744;DHT22;12844;52.110;5.548;2024-02-28T10:17:00;18.80;55.40
24744;DHT22;12844;52.110;5.548;2024-02-28T10:19:26;18.70;55.20
24744;DHT22;12844;52.110;5.548;2024-02-28T10:21:52;18.80;55.10
24744;DHT22;12844;52.110;5.548;2024-02-28T10:24:18;18.70;55.10
24744;DHT22;12844;52.110;5.548;2024-02-28T10:26:45;18.70;55.00
24744;DHT22;12844;52.110;5.548;2024-02-28T10:31:39;18.80;55.00
24744;DHT22;12844;52.110;5.548;2024-02-28T10:34:07;18.80;55.00
24744;DHT22;12844;52.110;5.548;2024-02-28T10:36:34;18.80;55.00
24744;DHT22;12844;52.110;5.548;2024-02-28T10:39:01;18.80;54.80
24744;DHT22;12844;52.110;5.548;2024-02-28T10:41:28;18.80;54.80
24744;DHT22;12844;52.110;5.548;2024-02-28T10:43:54;18.90;54.70
24744;DHT22;12844;52.110;5.548;2024-02-28T10:46:20;18.90;54.60
24744;DHT22;12844;52.110;5.548;2024-02-28T10:48:49;19.00;54.50
24744;DHT22;12844;52.110;5.548;2024-02-28T10:51:22;19.00;54.30
24744;DHT22;12844;52.110;5.548;2024-02-28T10:53:50;19.00;54.20
24744;DHT22;12844;52.110;5.548;2024-02-28T10:56:20;18.90;54.20
24744;DHT22;12844;52.110;5.548;2024-02-28T10:58:53;18.90;54.30
24744;DHT22;12844;52.110;5.548;2024-02-28T11:01:21;18.80;54.40
24744;DHT22;12844;52.110;5.548;2024-02-28T11:03:48;18.80;54.60
24744;DHT22;12844;52.110;5.548;2024-02-28T11:06:21;18.70;54.60
24744;DHT22;12844;52.110;5.548;2024-02-28T11:08:48;18.70;54.80
24744;DHT22;12844;52.110;5.548;2024-02-28T11:11:15;18.60;54.80
24744;DHT22;12844;52.110;5.548;2024-02-28T11:13:53;18.60;55.00
24744;DHT22;12844;52.110;5.548;2024-02-28T11:16:32;18.60;55.00
24744;DHT22;12844;52.110;5.548;2024-02-28T11:18:58;18.60;55.60
24744;DHT22;12844;52.110;5.548;2024-02-28T11:21:25;18.60;54.90
24744;DHT22;12844;52.110;5.548;2024-02-28T11:23:52;18.60;55.10
24744;DHT22;12844;52.110;5.548;2024-02-28T11:26:18;18.60;54.90
24744;DHT22;12844;52.110;5.548;2024-02-28T11:28:44;18.70;54.70
24744;DHT22;12844;52.110;5.548;2024-02-28T11:31:10;18.80;54.70
24744;DHT22;12844;52.110;5.548;2024-02-28T11:33:36;18.80;54.50
24744;DHT22;12844;52.110;5.548;2024-02-28T11:36:01;18.90;54.30
24744;DHT22;12844;52.110;5.548;2024-02-28T11:38:28;18.90;54.20
24744;DHT22;12844;52.110;5.548;2024-02-28T11:40:54;19.00;54.10
24744;DHT22;12844;52.110;5.548;2024-02-28T11:43:23;19.00;53.90
24744;DHT22;12844;52.110;5.548;2024-02-28T11:45:49;19.10;53.80
24744;DHT22;12844;52.110;5.548;2024-02-28T11:48:15;19.00;53.70
24744;DHT22;12844;52.110;5.548;2024-02-28T11:50:40;19.00;53.80
24744;DHT22;12844;52.110;5.548;2024-02-28T11:53:07;18.90;54.00
24744;DHT22;12844;52.110;5.548;2024-02-28T11:55:33;18.80;54.10
24744;DHT22;12844;52.110;5.548;2024-02-28T11:57:58;18.70;54.20
24744;DHT22;12844;52.110;5.548;2024-02-28T12:00:24;18.70;54.30
24744;DHT22;12844;52.110;5.548;2024-02-28T12:02:50;18.60;54.60
24744;DHT22;12844;52.110;5.548;2024-02-28T12:05:15;18.60;54.80
24744;DHT22;12844;52.110;5.548;2024-02-28T12:07:41;18.50;55.00
24744;DHT22;12844;52.110;5.548;2024-02-28T12:10:09;18.50;55.00
24744;DHT22;12844;52.110;5.548;2024-02-28T12:12:35;18.50;55.40
24744;DHT22;12844;52.110;5.548;2024-02-28T12:15:01;18.50;55.60
24744;DHT22;12844;52.110;5.548;2024-02-28T12:17:29;18.50;55.60
24744;DHT22;12844;52.110;5.548;2024-02-28T12:19:54;18.60;55.70
24744;DHT22;12844;52.110;5.548;2024-02-28T12:22:21;18.80;55.80
24744;DHT22;12844;52.110;5.548;2024-02-28T12:24:46;18.90;55.50
24744;DHT22;12844;52.110;5.548;2024-02-28T12:27:12;19.10;55.20
24744;DHT22;12844;52.110;5.548;2024-02-28T12:29:38;19.10;55.10
24744;DHT22;12844;52.110;5.548;2024-02-28T12:32:04;19.20;55.10
24744;DHT22;12844;52.110;5.548;2024-02-28T12:34:30;19.20;55.00
24744;DHT22;12844;52.110;5.548;2024-02-28T12:36:55;19.30;54.80
24744;DHT22;12844;52.110;5.548;2024-02-28T12:39:21;19.30;54.80
24744;DHT22;12844;52.110;5.548;2024-02-28T12:41:47;19.30;54.80
24744;DHT22;12844;52.110;5.548;2024-02-28T12:44:13;19.30;54.80
24744;DHT22;12844;52.110;5.548;2024-02-28T12:46:39;19.30;54.90
24744;DHT22;12844;52.110;5.548;2024-02-28T12:49:05;19.30;54.90
24744;DHT22;12844;52.110;5.548;2024-02-28T12:51:39;19.30;54.90
24744;DHT22;12844;52.110;5.548;2024-02-28T12:54:05;19.30;55.00
24744;DHT22;12844;52.110;5.548;2024-02-28T12:56:31;19.30;55.70
24744;DHT22;12844;52.110;5.548;2024-02-28T12:58:56;19.20;54.90
24744;DHT22;12844;52.110;5.548;2024-02-28T13:01:22;19.20;54.90
24744;DHT22;12844;52.110;5.548;2024-02-28T13:03:48;19.20;55.10
24744;DHT22;12844;52.110;5.548;2024-02-28T13:06:14;19.20;54.90
24744;DHT22;12844;52.110;5.548;2024-02-28T13:08:40;19.20;55.10
24744;DHT22;12844;52.110;5.548;2024-02-28T13:11:06;19.10;55.10
24744;DHT22;12844;52.110;5.548;2024-02-28T13:13:32;19.10;55.30
24744;DHT22;12844;52.110;5.548;2024-02-28T13:15:58;19.00;55.30
24744;DHT22;12844;52.110;5.548;2024-02-28T13:18:24;18.90;55.40
24744;DHT22;12844;52.110;5.548;2024-02-28T13:20:51;18.90;55.50
24744;DHT22;12844;52.110;5.548;2024-02-28T13:23:17;18.90;55.50
24744;DHT22;12844;52.110;5.548;2024-02-28T13:25:44;18.90;55.60
24744;DHT22;12844;52.110;5.548;2024-02-28T13:28:10;18.80;55.60
24744;DHT22;12844;52.110;5.548;2024-02-28T13:30:35;18.90;55.60
24744;DHT22;12844;52.110;5.548;2024-02-28T13:33:03;18.70;55.70
24744;DHT22;12844;52.110;5.548;2024-02-28T13:35:29;18.80;55.80
24744;DHT22;12844;52.110;5.548;2024-02-28T13:37:56;18.80;55.80
24744;DHT22;12844;52.110;5.548;2024-02-28T13:40:25;18.70;55.80
24744;DHT22;12844;52.110;5.548;2024-02-28T13:42:51;18.70;55.80
24744;DHT22;12844;52.110;5.548;2024-02-28T13:45:17;18.70;55.80
24744;DHT22;12844;52.110;5.548;2024-02-28T13:47:42;18.70;55.80
24744;DHT22;12844;52.110;5.548;2024-02-28T13:50:08;18.70;55.80
24744;DHT22;12844;52.110;5.548;2024-02-28T13:52:35;18.70;55.70
24744;DHT22;12844;52.110;5.548;2024-02-28T13:55:00;18.70;55.70
24744;DHT22;12844;52.110;5.548;2024-02-28T13:57:26;18.70;55.60
24744;DHT22;12844;52.110;5.548;2024-02-28T13:59:52;18.70;55.60
24744;DHT22;12844;52.110;5.548;2024-02-28T14:02:23;18.70;55.60
24744;DHT22;12844;52.110;5.548;2024-02-28T14:04:52;18.70;55.60
24744;DHT22;12844;52.110;5.548;2024-02-28T14:07:17;18.70;55.70
24744;DHT22;12844;52.110;5.548;2024-02-28T14:09:43;18.60;55.70
24744;DHT22;12844;52.110;5.548;2024-02-28T14:12:10;18.60;55.70
24744;DHT22;12844;52.110;5.548;2024-02-28T14:14:36;18.60;55.70
24744;DHT22;12844;52.110;5.548;2024-02-28T14:17:01;18.50;55.70
24744;DHT22;12844;52.110;5.548;2024-02-28T14:19:28;18.50;55.80
24744;DHT22;12844;52.110;5.548;2024-02-28T14:21:54;18.50;55.80
24744;DHT22;12844;52.110;5.548;2024-02-28T14:24:19;18.50;55.80
24744;DHT22;12844;52.110;5.548;2024-02-28T14:26:45;18.40;55.90
24744;DHT22;12844;52.110;5.548;2024-02-28T14:29:11;18.40;56.00
24744;DHT22;12844;52.110;5.548;2024-02-28T14:31:37;18.40;56.10
24744;DHT22;12844;52.110;5.548;2024-02-28T14:34:02;18.30;56.00
24744;DHT22;12844;52.110;5.548;2024-02-28T14:36:30;18.30;56.10
24744;DHT22;12844;52.110;5.548;2024-02-28T14:38:56;18.30;56.10
24744;DHT22;12844;52.110;5.548;2024-02-28T14:41:22;18.30;56.20
24744;DHT22;12844;52.110;5.548;2024-02-28T14:43:48;18.30;56.20
24744;DHT22;12844;52.110;5.548;2024-02-28T14:46:13;18.20;56.20
24744;DHT22;12844;52.110;5.548;2024-02-28T14:48:42;18.20;56.20
24744;DHT22;12844;52.110;5.548;2024-02-28T14:51:08;18.20;56.20
24744;DHT22;12844;52.110;5.548;2024-02-28T14:53:34;18.20;56.30
24744;DHT22;12844;52.110;5.548;2024-02-28T14:56:00;18.20;56.20
24744;DHT22;12844;52.110;5.548;2024-02-28T14:58:25;18.20;56.30
24744;DHT22;12844;52.110;5.548;2024-02-28T15:00:51;18.10;56.70
24744;DHT22;12844;52.110;5.548;2024-02-28T15:03:17;18.20;56.30
24744;DHT22;12844;52.110;5.548;2024-02-28T15:05:42;18.20;56.30
24744;DHT22;12844;52.110;5.548;2024-02-28T15:08:10;18.20;56.40
24744;DHT22;12844;52.110;5.548;2024-02-28T15:10:36;18.20;56.30
24744;DHT22;12844;52.110;5.548;2024-02-28T15:13:01;18.20;56.30
24744;DHT22;12844;52.110;5.548;2024-02-28T15:15:27;18.20;56.20
24744;DHT22;12844;52.110;5.548;2024-02-28T15:17:53;18.10;56.00
24744;DHT22;12844;52.110;5.548;2024-02-28T15:20:19;18.20;56.80
24744;DHT22;12844;52.110;5.548;2024-02-28T15:22:45;18.20;56.30
24744;DHT22;12844;52.110;5.548;2024-02-28T15:25:11;18.10;56.20
24744;DHT22;12844;52.110;5.548;2024-02-28T15:27:37;18.10;56.20
24744;DHT22;12844;52.110;5.548;2024-02-28T15:30:03;18.10;56.30
24744;DHT22;12844;52.110;5.548;2024-02-28T15:32:30;18.10;56.30
24744;DHT22;12844;52.110;5.548;2024-02-28T15:34:57;18.10;56.30
24744;DHT22;12844;52.110;5.548;2024-02-28T15:37:23;18.10;56.30
24744;DHT22;12844;52.110;5.548;2024-02-28T15:39:48;18.10;56.40
24744;DHT22;12844;52.110;5.548;2024-02-28T15:42:15;18.10;56.30
24744;DHT22;12844;52.110;5.548;2024-02-28T15:44:41;18.10;56.10
24744;DHT22;12844;52.110;5.548;2024-02-28T15:47:08;18.10;56.20
24744;DHT22;12844;52.110;5.548;2024-02-28T15:49:34;18.00;56.30
24744;DHT22;12844;52.110;5.548;2024-02-28T15:52:00;18.00;56.20
24744;DHT22;12844;52.110;5.548;2024-02-28T15:54:26;18.00;56.30
24744;DHT22;12844;52.110;5.548;2024-02-28T15:56:52;18.00;56.30
24744;DHT22;12844;52.110;5.548;2024-02-28T15:59:18;18.00;56.30